createdAt,value
2018-02-09T00:02:28.165Z,-3.90
2018-02-09T00:04:57.671Z,-3.90
2018-02-09T00:07:27.928Z,-4.00
2018-02-09T00:09:56.569Z,-4.00
2018-02-09T00:12:25.212Z,-4.00
2018-02-09T00:14:54.229Z,-3.90
2018-02-09T00:17:22.890Z,-3.90
2018-02-09T00:19:51.538Z,-3.90
2018-02-09T00:22:20.396Z,-3.90
2018-02-09T00:24:49.055Z,-4.00
2018-02-09T00:27:17.692Z,-3.90
2018-02-09T00:29:47.116Z,-3.90
2018-02-09T00:34:44.415Z,-3.90
2018-02-09T00:37:13.063Z,-3.90
2018-02-09T00:39:41.727Z,-4.00
2018-02-09T00:42:11.909Z,-3.90
2018-02-09T00:44:40.639Z,-3.90
2018-02-09T00:47:10.066Z,-3.90
2018-02-09T00:49:38.720Z,-4.00
2018-02-09T00:52:08.148Z,-3.90
2018-02-09T00:54:36.842Z,-3.90
2018-02-09T00:57:05.525Z,-3.90
2018-02-09T00:59:34.291Z,-3.90
2018-02-09T01:02:03.717Z,-3.80
2018-02-09T01:04:32.418Z,-3.80
2018-02-09T01:07:01.067Z,-3.90
2018-02-09T01:09:30.460Z,-4.00
2018-02-09T01:11:59.881Z,-4.00
2018-02-09T01:14:28.681Z,-4.00
2018-02-09T01:16:57.331Z,-4.10
2018-02-09T01:19:26.862Z,-4.20
2018-02-09T01:21:56.022Z,-4.20
2018-02-09T01:24:26.675Z,-4.20
2018-02-09T01:26:55.369Z,-4.20
2018-02-09T01:29:24.016Z,-4.20
2018-02-09T01:31:52.669Z,-4.10
2018-02-09T01:34:21.306Z,-4.10
2018-02-09T01:36:50.766Z,-4.10
2018-02-09T01:39:19.423Z,-4.10
2018-02-09T01:41:48.100Z,-4.00
2018-02-09T01:44:16.754Z,-4.00
2018-02-09T01:46:45.383Z,-4.00
2018-02-09T01:49:14.026Z,-4.00
2018-02-09T01:51:43.428Z,-4.00
2018-02-09T01:54:12.081Z,-4.00
2018-02-09T01:56:40.729Z,-4.10
2018-02-09T01:59:09.396Z,-4.10
2018-02-09T02:01:38.787Z,-4.20
2018-02-09T02:04:08.286Z,-4.20
2018-02-09T02:06:36.912Z,-4.20
2018-02-09T02:09:04.896Z,-4.30
2018-02-09T02:11:33.556Z,-4.30
2018-02-09T02:14:02.220Z,-4.20
2018-02-09T02:16:31.652Z,-4.10
2018-02-09T02:19:00.397Z,-4.10
2018-02-09T02:21:29.801Z,-4.00
2018-02-09T02:23:58.484Z,-4.00
2018-02-09T02:26:28.458Z,-4.00
2018-02-09T02:28:57.089Z,-4.00
2018-02-09T02:31:26.499Z,-4.00
2018-02-09T02:33:55.892Z,-4.10
2018-02-09T02:36:25.305Z,-4.10
2018-02-09T02:38:54.703Z,-4.20
2018-02-09T02:41:23.791Z,-4.20
2018-02-09T02:43:53.189Z,-4.20
2018-02-09T02:46:21.860Z,-4.20
2018-02-09T02:48:50.498Z,-4.30
2018-02-09T02:51:19.159Z,-4.40
2018-02-09T02:53:47.815Z,-4.40
2018-02-09T02:56:16.467Z,-4.40
2018-02-09T02:58:45.389Z,-4.40
2018-02-09T03:01:14.033Z,-4.40
2018-02-09T03:03:42.683Z,-4.40
2018-02-09T03:06:12.103Z,-4.40
2018-02-09T03:08:40.759Z,-4.40
2018-02-09T03:11:09.432Z,-4.40
2018-02-09T03:13:38.063Z,-4.40
2018-02-09T03:16:06.727Z,-4.40
2018-02-09T03:18:36.151Z,-4.40
2018-02-09T03:21:04.787Z,-4.40
2018-02-09T03:23:33.419Z,-4.40
2018-02-09T03:26:02.100Z,-4.40
2018-02-09T03:28:30.754Z,-4.50
2018-02-09T03:31:00.261Z,-4.50
2018-02-09T03:33:29.764Z,-4.50
2018-02-09T03:35:58.387Z,-4.50
2018-02-09T03:38:27.029Z,-4.40
2018-02-09T03:40:56.492Z,-4.30
2018-02-09T03:43:25.222Z,-4.30
2018-02-09T03:45:53.851Z,-4.20
2018-02-09T03:48:22.504Z,-4.20
2018-02-09T03:50:51.921Z,-4.00
2018-02-09T03:53:20.576Z,-4.00
2018-02-09T03:55:49.214Z,-4.00
2018-02-09T03:58:17.882Z,-3.90
2018-02-09T04:00:46.507Z,-3.90
2018-02-09T04:03:15.164Z,-3.80
2018-02-09T04:05:43.793Z,-3.80
2018-02-09T04:08:12.415Z,-3.70
2018-02-09T04:10:41.068Z,-3.70
2018-02-09T04:13:10.084Z,-3.60
2018-02-09T04:15:38.739Z,-3.60
2018-02-09T04:18:07.358Z,-3.50
2018-02-09T04:20:36.028Z,-3.50
2018-02-09T04:23:06.029Z,-3.40
2018-02-09T04:25:34.715Z,-3.40
2018-02-09T04:28:04.122Z,-3.40
2018-02-09T04:30:33.546Z,-3.40
2018-02-09T04:33:02.183Z,-3.40
2018-02-09T04:35:30.846Z,-3.50
2018-02-09T04:37:59.500Z,-3.50
2018-02-09T04:40:28.183Z,-3.60
2018-02-09T04:42:56.486Z,-3.70
2018-02-09T04:45:25.156Z,-3.80
2018-02-09T04:47:53.791Z,-4.00
2018-02-09T04:50:22.448Z,-4.20
2018-02-09T04:52:51.113Z,-4.30
2018-02-09T04:55:19.572Z,-4.40
2018-02-09T04:57:49.023Z,-4.60
2018-02-09T05:00:17.673Z,-4.70
2018-02-09T05:02:46.381Z,-4.70
2018-02-09T05:05:15.780Z,-4.70
2018-02-09T05:07:44.427Z,-4.80
2018-02-09T05:10:13.128Z,-4.70
2018-02-09T05:12:41.804Z,-4.60
2018-02-09T05:15:10.430Z,-4.50
2018-02-09T05:17:40.100Z,-4.30
2018-02-09T05:20:08.747Z,-4.10
2018-02-09T05:22:37.419Z,-3.90
2018-02-09T05:25:06.074Z,-3.70
2018-02-09T05:27:34.732Z,-3.60
2018-02-09T05:30:03.659Z,-3.50
2018-02-09T05:32:32.359Z,-3.40
2018-02-09T05:35:02.568Z,-3.40
2018-02-09T05:37:31.239Z,-3.40
2018-02-09T05:39:59.923Z,-3.40
2018-02-09T05:42:28.579Z,-3.50
2018-02-09T05:44:57.981Z,-3.50
2018-02-09T05:47:27.381Z,-3.50
2018-02-09T05:49:56.798Z,-3.50
2018-02-09T05:52:25.422Z,-3.60
2018-02-09T05:54:54.109Z,-3.50
2018-02-09T05:57:23.744Z,-3.50
2018-02-09T05:59:53.218Z,-3.40
2018-02-09T06:02:21.867Z,-3.50
2018-02-09T06:04:50.516Z,-3.40
2018-02-09T06:07:19.161Z,-3.50
2018-02-09T06:09:47.816Z,-3.50
2018-02-09T06:12:16.459Z,-3.50
2018-02-09T06:14:45.149Z,-3.60
2018-02-09T06:17:13.813Z,-3.50
2018-02-09T06:19:42.457Z,-3.50
2018-02-09T06:22:11.100Z,-3.50
2018-02-09T06:24:39.765Z,-3.50
2018-02-09T06:27:08.445Z,-3.50
2018-02-09T06:29:37.110Z,-3.40
2018-02-09T06:32:05.755Z,-3.40
2018-02-09T06:34:35.268Z,-3.40
2018-02-09T06:37:04.698Z,-3.40
2018-02-09T06:39:33.353Z,-3.40
2018-02-09T06:42:02.012Z,-3.40
2018-02-09T06:44:30.663Z,-3.50
2018-02-09T06:46:59.319Z,-3.50
2018-02-09T06:49:28.714Z,-3.50
2018-02-09T06:51:58.134Z,-3.50
2018-02-09T06:54:26.821Z,-3.50
2018-02-09T06:56:55.484Z,-3.50
2018-02-09T06:59:24.896Z,-3.50
2018-02-09T07:01:53.563Z,-3.50
2018-02-09T07:04:22.199Z,-3.50
2018-02-09T07:06:50.842Z,-3.50
2018-02-09T07:09:20.275Z,-3.50
2018-02-09T07:11:49.021Z,-3.50
2018-02-09T07:14:18.442Z,-3.50
2018-02-09T07:16:47.871Z,-3.50
2018-02-09T07:19:16.520Z,-3.50
2018-02-09T07:21:45.932Z,-3.60
2018-02-09T07:24:15.163Z,-3.60
2018-02-09T07:26:43.815Z,-3.60
2018-02-09T07:29:12.466Z,-3.60
2018-02-09T07:31:41.169Z,-3.60
2018-02-09T07:34:10.665Z,-3.80
2018-02-09T07:36:40.079Z,-3.80
2018-02-09T07:39:09.508Z,-3.80
2018-02-09T07:41:38.293Z,-3.80
2018-02-09T07:44:06.950Z,-3.90
2018-02-09T07:46:36.379Z,-4.00
2018-02-09T07:49:05.058Z,-3.90
2018-02-09T07:51:33.721Z,-4.00
2018-02-09T07:54:03.150Z,-3.90
2018-02-09T07:56:31.815Z,-3.90
2018-02-09T07:59:01.105Z,-3.80
2018-02-09T08:01:30.510Z,-3.60
2018-02-09T08:03:59.921Z,-3.50
2018-02-09T08:06:28.566Z,-3.50
2018-02-09T08:08:57.290Z,-3.30
2018-02-09T08:11:26.788Z,-3.10
2018-02-09T08:13:56.235Z,-3.00
2018-02-09T08:16:24.897Z,-3.00
2018-02-09T08:18:53.558Z,-3.00
2018-02-09T08:21:22.243Z,-3.00
2018-02-09T08:23:51.739Z,-2.90
2018-02-09T08:26:20.395Z,-2.90
2018-02-09T08:28:49.800Z,-2.80
2018-02-09T08:31:18.456Z,-2.80
2018-02-09T08:33:47.132Z,-2.60
2018-02-09T08:36:15.788Z,-2.50
2018-02-09T08:38:44.431Z,-2.40
2018-02-09T08:41:13.095Z,-2.30
2018-02-09T08:43:41.744Z,-2.20
2018-02-09T08:46:11.215Z,-2.00
2018-02-09T08:48:39.914Z,-2.00
2018-02-09T08:51:08.569Z,-1.90
2018-02-09T08:53:37.225Z,-1.70
2018-02-09T08:56:05.938Z,-1.50
2018-02-09T08:58:34.602Z,-1.40
2018-02-09T09:01:03.268Z,-1.20
2018-02-09T09:03:32.805Z,-0.90
2018-02-09T09:06:01.453Z,-1.00
2018-02-09T09:08:31.121Z,-0.70
2018-02-09T09:10:59.447Z,-0.70
2018-02-09T09:13:28.109Z,-0.60
2018-02-09T09:15:56.775Z,-0.50
2018-02-09T09:18:25.448Z,-0.40
2018-02-09T09:20:54.196Z,-0.20
2018-02-09T09:23:22.879Z,0.00
2018-02-09T09:25:51.512Z,0.10
2018-02-09T09:28:20.192Z,0.20
2018-02-09T09:30:48.840Z,0.20
2018-02-09T09:33:17.532Z,0.30
2018-02-09T09:35:46.184Z,0.20
2018-02-09T09:38:15.431Z,-0.10
2018-02-09T09:40:44.074Z,-0.10
2018-02-09T09:43:13.507Z,0.10
2018-02-09T09:45:42.207Z,0.10
2018-02-09T09:48:10.852Z,0.20
2018-02-09T09:50:39.517Z,0.20
2018-02-09T09:53:08.006Z,0.50
2018-02-09T09:55:36.409Z,0.70
2018-02-09T09:58:04.984Z,0.60
2018-02-09T10:00:33.652Z,0.50
2018-02-09T10:03:02.034Z,0.50
2018-02-09T10:05:30.416Z,0.50
2018-02-09T10:07:58.861Z,0.80
2018-02-09T10:10:28.330Z,0.70
2018-02-09T10:12:57.332Z,0.70
2018-02-09T10:15:25.732Z,1.00
2018-02-09T10:17:54.885Z,1.30
2018-02-09T10:20:23.264Z,1.30
2018-02-09T10:22:51.959Z,1.40
2018-02-09T10:25:20.389Z,1.20
2018-02-09T10:27:49.831Z,1.10
2018-02-09T10:30:18.243Z,1.10
2018-02-09T10:32:47.406Z,1.20
2018-02-09T10:35:15.348Z,1.20
2018-02-09T10:37:49.237Z,1.40
2018-02-09T10:40:17.775Z,1.50
2018-02-09T10:42:46.189Z,1.50
2018-02-09T10:45:15.324Z,1.70
2018-02-09T10:47:43.730Z,1.70
2018-02-09T10:50:12.100Z,1.70
2018-02-09T10:52:40.485Z,1.50
2018-02-09T10:55:08.864Z,1.40
2018-02-09T10:57:37.246Z,1.60
2018-02-09T11:00:05.036Z,1.50
2018-02-09T11:02:34.188Z,1.40
2018-02-09T11:05:02.551Z,1.40
2018-02-09T11:07:30.930Z,1.40
2018-02-09T11:09:59.119Z,1.80
2018-02-09T11:12:27.336Z,1.70
2018-02-09T11:14:56.475Z,2.10
2018-02-09T11:17:24.852Z,2.10
2018-02-09T11:19:53.242Z,2.00
2018-02-09T11:22:22.373Z,1.60
2018-02-09T11:24:50.765Z,1.60
2018-02-09T11:27:19.896Z,2.20
2018-02-09T11:29:48.308Z,2.20
2018-02-09T11:32:16.848Z,2.20
2018-02-09T11:34:45.266Z,2.10
2018-02-09T11:37:13.647Z,1.80
2018-02-09T11:39:42.042Z,1.90
2018-02-09T11:42:10.405Z,1.90
2018-02-09T11:44:38.791Z,2.10
2018-02-09T11:47:07.298Z,2.20
2018-02-09T11:49:36.479Z,2.40
2018-02-09T11:52:05.628Z,2.90
2018-02-09T11:54:34.758Z,2.80
2018-02-09T11:57:03.124Z,2.60
2018-02-09T11:59:31.505Z,2.40
2018-02-09T12:01:59.896Z,2.30
2018-02-09T12:04:29.063Z,2.30
2018-02-09T12:06:57.596Z,2.40
2018-02-09T12:09:26.749Z,2.40
2018-02-09T12:11:56.892Z,2.40
2018-02-09T12:14:25.267Z,2.20
2018-02-09T12:16:53.642Z,2.00
2018-02-09T12:19:22.036Z,2.30
2018-02-09T12:21:50.414Z,2.80
2018-02-09T12:24:19.563Z,3.20
2018-02-09T12:26:47.955Z,3.20
2018-02-09T12:29:16.339Z,3.20
2018-02-09T12:31:44.714Z,3.30
2018-02-09T12:34:13.090Z,3.50
2018-02-09T12:36:41.482Z,3.50
2018-02-09T12:39:09.852Z,3.70
2018-02-09T12:41:38.139Z,3.50
2018-02-09T12:44:06.505Z,3.30
2018-02-09T12:46:34.863Z,3.50
2018-02-09T12:49:03.263Z,3.60
2018-02-09T12:51:31.649Z,3.50
2018-02-09T12:54:00.058Z,3.30
2018-02-09T12:56:29.212Z,3.30
2018-02-09T12:58:57.594Z,3.20
2018-02-09T13:01:25.987Z,3.00
2018-02-09T13:03:54.035Z,2.90
2018-02-09T13:06:22.412Z,3.00
2018-02-09T13:08:50.797Z,2.90
2018-02-09T13:11:19.182Z,3.00
2018-02-09T13:13:47.612Z,3.10
2018-02-09T13:16:16.158Z,3.00
2018-02-09T13:18:49.607Z,3.40
2018-02-09T13:21:18.012Z,3.70
2018-02-09T13:23:57.435Z,3.90
2018-02-09T13:26:25.812Z,4.30
2018-02-09T13:29:00.451Z,4.10
2018-02-09T13:31:28.815Z,4.00
2018-02-09T13:33:57.204Z,3.80
2018-02-09T13:36:36.975Z,3.70
2018-02-09T13:39:04.774Z,3.30
2018-02-09T13:41:33.151Z,3.20
2018-02-09T13:44:01.527Z,3.30
2018-02-09T13:46:29.963Z,3.30
2018-02-09T13:48:58.328Z,3.30
2018-02-09T13:51:26.710Z,3.20
2018-02-09T13:53:56.578Z,3.20
2018-02-09T13:56:24.971Z,3.20
2018-02-09T13:58:53.447Z,3.20
2018-02-09T14:01:23.368Z,3.00
2018-02-09T14:03:51.780Z,3.10
2018-02-09T14:06:20.161Z,3.30
2018-02-09T14:08:48.523Z,3.60
2018-02-09T14:11:16.996Z,4.00
2018-02-09T14:13:45.420Z,3.40
2018-02-09T14:16:14.587Z,3.30
2018-02-09T14:18:42.968Z,3.20
2018-02-09T14:21:11.344Z,3.40
2018-02-09T14:23:39.811Z,3.30
2018-02-09T14:26:08.282Z,3.40
2018-02-09T14:28:36.660Z,3.40
2018-02-09T14:31:06.111Z,3.40
2018-02-09T14:33:35.247Z,3.20
2018-02-09T14:36:03.644Z,3.20
2018-02-09T14:38:32.029Z,3.10
2018-02-09T14:41:01.446Z,2.70
2018-02-09T14:43:29.972Z,2.30
2018-02-09T14:45:59.003Z,1.90
2018-02-09T14:48:27.618Z,1.80
2018-02-09T14:50:56.044Z,1.60
2018-02-09T14:53:24.435Z,1.50
2018-02-09T14:55:52.824Z,1.40
2018-02-09T14:58:21.211Z,1.40
2018-02-09T15:00:49.597Z,1.30
2018-02-09T15:03:17.987Z,1.40
2018-02-09T15:05:46.400Z,1.50
2018-02-09T15:08:14.764Z,1.40
2018-02-09T15:10:43.903Z,1.20
2018-02-09T15:13:12.275Z,1.20
2018-02-09T15:15:40.652Z,1.20
2018-02-09T15:18:09.096Z,1.20
2018-02-09T15:20:38.241Z,1.20
2018-02-09T15:23:06.622Z,1.20
2018-02-09T15:25:35.234Z,1.10
2018-02-09T15:28:03.632Z,1.00
2018-02-09T15:30:32.769Z,1.00
2018-02-09T15:33:01.202Z,0.90
2018-02-09T15:35:30.520Z,0.90
2018-02-09T15:37:58.896Z,0.90
2018-02-09T15:40:27.259Z,1.00
2018-02-09T15:42:56.391Z,1.00
2018-02-09T15:45:25.611Z,1.00
2018-02-09T15:47:53.969Z,1.00
2018-02-09T15:50:22.364Z,0.90
2018-02-09T15:52:50.742Z,0.90
2018-02-09T15:55:19.100Z,1.00
2018-02-09T15:57:47.493Z,1.00
2018-02-09T16:00:15.855Z,0.90
2018-02-09T16:02:44.244Z,0.80
2018-02-09T16:05:12.656Z,0.80
2018-02-09T16:07:41.043Z,0.90
2018-02-09T16:10:10.201Z,0.90
2018-02-09T16:12:38.596Z,0.90
2018-02-09T16:15:06.986Z,1.00
2018-02-09T16:17:35.368Z,1.00
2018-02-09T16:20:03.740Z,1.00
2018-02-09T16:22:32.144Z,1.00
2018-02-09T16:25:01.281Z,1.00
2018-02-09T16:27:31.617Z,1.00
2018-02-09T16:30:00.006Z,0.90
2018-02-09T16:32:28.421Z,0.90
2018-02-09T16:34:57.571Z,0.90
2018-02-09T16:37:26.008Z,0.80
2018-02-09T16:39:54.450Z,0.80
2018-02-09T16:42:22.984Z,0.90
2018-02-09T16:44:51.468Z,0.80
2018-02-09T16:47:19.980Z,0.80
2018-02-09T16:49:49.172Z,0.80
2018-02-09T16:52:17.571Z,0.70
2018-02-09T16:54:45.967Z,0.80
2018-02-09T16:57:15.219Z,0.80
2018-02-09T16:59:43.618Z,0.80
2018-02-09T17:02:12.069Z,0.80
2018-02-09T17:04:40.451Z,0.80
2018-02-09T17:07:08.843Z,0.70
2018-02-09T17:09:37.279Z,0.70
2018-02-09T17:12:05.641Z,0.70
2018-02-09T17:14:34.824Z,0.70
2018-02-09T17:17:03.196Z,0.60
2018-02-09T17:19:31.573Z,0.70
2018-02-09T17:21:59.933Z,0.70
2018-02-09T17:24:28.334Z,0.70
2018-02-09T17:26:57.174Z,0.60
2018-02-09T17:29:25.557Z,0.60
2018-02-09T17:31:53.939Z,0.70
2018-02-09T17:34:22.319Z,0.60
2018-02-09T17:36:50.704Z,0.70
2018-02-09T17:39:19.071Z,0.70
2018-02-09T17:41:47.478Z,0.60
2018-02-09T17:44:16.652Z,0.60
2018-02-09T17:46:45.044Z,0.60
2018-02-09T17:49:13.408Z,0.60
2018-02-09T17:51:41.807Z,0.60
2018-02-09T17:54:10.180Z,0.60
2018-02-09T17:56:38.559Z,0.70
2018-02-09T17:59:06.919Z,0.60
2018-02-09T18:01:35.303Z,0.60
2018-02-09T18:04:03.704Z,0.60
2018-02-09T18:06:32.124Z,0.60
2018-02-09T18:09:01.257Z,0.60
2018-02-09T18:11:29.712Z,0.60
2018-02-09T18:13:58.209Z,0.60
2018-02-09T18:16:26.407Z,0.70
2018-02-09T18:18:54.793Z,0.60
2018-02-09T18:21:23.202Z,0.60
2018-02-09T18:23:51.603Z,0.60
2018-02-09T18:26:20.024Z,0.60
2018-02-09T18:28:48.400Z,0.60
2018-02-09T18:31:16.813Z,0.50
2018-02-09T18:33:45.472Z,0.50
2018-02-09T18:36:13.852Z,0.50
2018-02-09T18:38:42.544Z,0.40
2018-02-09T18:41:10.930Z,0.40
2018-02-09T18:43:40.094Z,0.40
2018-02-09T18:46:08.461Z,0.40
2018-02-09T18:48:36.860Z,0.30
2018-02-09T18:51:05.231Z,0.30
2018-02-09T18:53:33.691Z,0.30
2018-02-09T18:56:03.100Z,0.30
2018-02-09T18:58:32.494Z,0.30
2018-02-09T19:01:00.881Z,0.30
2018-02-09T19:03:30.289Z,0.40
2018-02-09T19:05:58.689Z,0.30
2018-02-09T19:08:27.062Z,0.30
2018-02-09T19:10:55.432Z,0.40
2018-02-09T19:13:24.080Z,0.40
2018-02-09T19:15:53.305Z,0.40
2018-02-09T19:18:21.704Z,0.30
2018-02-09T19:20:50.086Z,0.40
2018-02-09T19:23:19.232Z,0.40
2018-02-09T19:25:47.603Z,0.40
2018-02-09T19:28:15.779Z,0.40
2018-02-09T19:30:45.005Z,0.40
2018-02-09T19:33:13.385Z,0.40
2018-02-09T19:35:41.779Z,0.40
2018-02-09T19:38:10.331Z,0.40
2018-02-09T19:40:38.985Z,0.40
2018-02-09T19:43:08.114Z,0.30
2018-02-09T19:45:37.524Z,0.30
2018-02-09T19:48:05.935Z,0.30
2018-02-09T19:50:34.301Z,0.30
2018-02-09T19:53:02.688Z,0.30
2018-02-09T19:55:31.317Z,0.20
2018-02-09T19:57:59.691Z,0.20
2018-02-09T20:00:28.055Z,0.20
2018-02-09T20:02:57.258Z,0.20
2018-02-09T20:05:25.900Z,0.20
2018-02-09T20:07:57.303Z,0.20
2018-02-09T20:10:25.949Z,0.20
2018-02-09T20:12:54.353Z,0.20
2018-02-09T20:15:22.984Z,0.20
2018-02-09T20:17:52.396Z,0.20
2018-02-09T20:20:21.052Z,0.20
2018-02-09T20:22:49.475Z,0.20
2018-02-09T20:25:17.868Z,0.20
2018-02-09T20:27:47.029Z,0.20
2018-02-09T20:30:15.427Z,0.20
2018-02-09T20:32:44.104Z,0.20
2018-02-09T20:35:12.491Z,0.20
2018-02-09T20:37:40.873Z,0.20
2018-02-09T20:40:09.642Z,0.20
2018-02-09T20:42:38.026Z,0.20
2018-02-09T20:45:06.693Z,0.20
2018-02-09T20:47:36.201Z,0.20
2018-02-09T20:50:05.681Z,0.20
2018-02-09T20:52:35.104Z,0.20
2018-02-09T20:55:03.439Z,0.20
2018-02-09T20:57:32.091Z,0.20
2018-02-09T21:00:00.742Z,0.20
2018-02-09T21:02:30.139Z,0.30
2018-02-09T21:04:58.626Z,0.30
2018-02-09T21:07:27.039Z,0.30
2018-02-09T21:09:55.452Z,0.30
2018-02-09T21:12:23.811Z,0.30
2018-02-09T21:14:52.978Z,0.40
2018-02-09T21:17:21.369Z,0.40
2018-02-09T21:19:49.779Z,0.40
2018-02-09T21:22:18.147Z,0.40
2018-02-09T21:24:46.589Z,0.50
2018-02-09T21:27:15.004Z,0.50
2018-02-09T21:29:44.208Z,0.50
2018-02-09T21:32:13.371Z,0.50
2018-02-09T21:34:41.746Z,0.50
2018-02-09T21:37:09.804Z,0.50
2018-02-09T21:39:38.164Z,0.50
2018-02-09T21:42:06.527Z,0.50
2018-02-09T21:44:34.908Z,0.40
2018-02-09T21:47:03.561Z,0.40
2018-02-09T21:49:32.691Z,0.40
2018-02-09T21:52:01.337Z,0.40
2018-02-09T21:54:29.994Z,0.40
2018-02-09T21:56:58.700Z,0.30
2018-02-09T21:59:28.238Z,0.30
2018-02-09T22:01:58.049Z,0.30
2018-02-09T22:04:26.474Z,0.30
2018-02-09T22:06:54.863Z,0.30
2018-02-09T22:09:23.237Z,0.30
2018-02-09T22:11:51.860Z,0.30
2018-02-09T22:14:20.516Z,0.30
2018-02-09T22:16:49.167Z,0.30
2018-02-09T22:19:17.562Z,0.30
2018-02-09T22:21:45.956Z,0.30
2018-02-09T22:24:14.612Z,0.40
2018-02-09T22:26:43.000Z,0.30
2018-02-09T22:29:11.459Z,0.30
2018-02-09T22:31:39.824Z,0.30
2018-02-09T22:34:08.204Z,0.40
2018-02-09T22:36:36.827Z,0.40
2018-02-09T22:39:04.550Z,0.40
2018-02-09T22:41:32.926Z,0.40
2018-02-09T22:44:01.302Z,0.40
2018-02-09T22:46:29.696Z,0.40
2018-02-09T22:48:59.135Z,0.40
2018-02-09T22:51:27.781Z,0.40
2018-02-09T22:53:56.491Z,0.40
2018-02-09T22:56:24.884Z,0.40
2018-02-09T22:58:53.258Z,0.40
2018-02-09T23:01:21.923Z,0.40
2018-02-09T23:03:51.328Z,0.50
2018-02-09T23:06:19.801Z,0.50
2018-02-09T23:08:49.232Z,0.50
2018-02-09T23:11:17.603Z,0.50
2018-02-09T23:13:45.957Z,0.60
2018-02-09T23:16:13.676Z,0.60
2018-02-09T23:18:42.836Z,0.60
2018-02-09T23:21:11.226Z,0.60
2018-02-09T23:23:39.795Z,0.60
2018-02-09T23:26:08.175Z,0.70
2018-02-09T23:28:36.551Z,0.60
2018-02-09T23:31:04.931Z,0.70
2018-02-09T23:33:33.323Z,0.70
2018-02-09T23:36:01.830Z,0.70
2018-02-09T23:38:30.477Z,0.70
2018-02-09T23:40:58.853Z,0.70
2018-02-09T23:43:27.233Z,0.70
2018-02-09T23:45:55.613Z,0.70
2018-02-09T23:48:24.001Z,0.70
2018-02-09T23:50:52.371Z,0.70
2018-02-09T23:53:20.764Z,0.70
2018-02-09T23:55:49.135Z,0.70
2018-02-09T23:58:17.537Z,0.70
